createdAt,value
2019-01-13T00:00:42.711Z,7.10
2019-01-13T00:01:42.696Z,7.13
2019-01-13T00:02:42.682Z,7.10
2019-01-13T00:03:42.669Z,7.06
2019-01-13T00:04:42.654Z,7.13
2019-01-13T00:05:42.638Z,7.10
2019-01-13T00:06:42.625Z,7.07
2019-01-13T00:07:42.610Z,7.13
2019-01-13T00:08:42.597Z,7.15
2019-01-13T00:09:42.581Z,7.10
2019-01-13T00:10:42.567Z,7.10
2019-01-13T00:11:42.553Z,7.06
2019-01-13T00:12:42.539Z,7.13
2019-01-13T00:13:42.524Z,7.11
2019-01-13T00:14:42.509Z,7.06
2019-01-13T00:15:42.496Z,7.13
2019-01-13T00:16:42.481Z,7.13
2019-01-13T00:17:42.466Z,7.10
2019-01-13T00:18:42.453Z,7.13
2019-01-13T00:19:42.438Z,7.06
2019-01-13T00:20:42.424Z,7.15
2019-01-13T00:21:42.411Z,7.10
2019-01-13T00:22:42.395Z,7.11
2019-01-13T00:23:42.381Z,7.10
2019-01-13T00:24:42.367Z,7.10
2019-01-13T00:25:42.352Z,7.10
2019-01-13T00:26:42.341Z,7.06
2019-01-13T00:27:42.324Z,7.13
2019-01-13T00:28:42.312Z,7.13
2019-01-13T00:29:42.295Z,7.07
2019-01-13T00:30:42.281Z,7.07
2019-01-13T00:31:42.267Z,7.06
2019-01-13T00:32:42.253Z,7.13
2019-01-13T00:33:42.240Z,7.11
2019-01-13T00:34:42.225Z,7.10
2019-01-13T00:35:42.214Z,7.10
2019-01-13T00:36:42.197Z,7.13
2019-01-13T00:37:42.189Z,7.15
2019-01-13T00:38:42.170Z,7.13
2019-01-13T00:39:42.156Z,7.07
2019-01-13T00:40:42.143Z,7.13
2019-01-13T00:41:42.127Z,7.17
2019-01-13T00:42:42.213Z,7.13
2019-01-13T00:43:42.099Z,7.11
2019-01-13T00:44:42.085Z,7.15
2019-01-13T00:45:42.071Z,7.11
2019-01-13T00:46:42.058Z,7.17
2019-01-13T00:47:42.044Z,7.15
2019-01-13T00:48:42.066Z,7.13
2019-01-13T00:49:42.015Z,7.10
2019-01-13T00:50:42.002Z,7.21
2019-01-13T00:51:41.988Z,7.13
2019-01-13T00:52:41.975Z,7.24
2019-01-13T00:53:42.980Z,7.18
2019-01-13T00:54:41.949Z,7.17
2019-01-13T00:55:41.933Z,7.20
2019-01-13T00:56:41.919Z,7.11
2019-01-13T00:57:41.906Z,7.17
2019-01-13T00:58:41.894Z,7.20
2019-01-13T00:59:41.879Z,7.20
2019-01-13T01:00:41.864Z,7.23
2019-01-13T01:01:41.850Z,7.18
2019-01-13T01:02:41.835Z,7.15
2019-01-13T01:03:41.872Z,7.10
2019-01-13T01:04:41.808Z,7.20
2019-01-13T01:05:41.794Z,7.23
2019-01-13T01:06:41.780Z,7.15
2019-01-13T01:07:41.766Z,7.18
2019-01-13T01:08:41.754Z,7.24
2019-01-13T01:09:41.739Z,7.18
2019-01-13T01:10:41.723Z,7.24
2019-01-13T01:11:41.710Z,7.20
2019-01-13T01:12:41.696Z,7.20
2019-01-13T01:13:41.682Z,7.18
2019-01-13T01:14:41.671Z,7.18
2019-01-13T01:15:41.655Z,7.13
2019-01-13T01:16:41.641Z,7.18
2019-01-13T01:17:41.626Z,7.21
2019-01-13T01:18:41.863Z,7.18
2019-01-13T01:19:41.599Z,7.21
2019-01-13T01:20:41.588Z,7.21
2019-01-13T01:21:41.571Z,7.21
2019-01-13T01:22:41.557Z,7.18
2019-01-13T01:23:41.543Z,7.21
2019-01-13T01:24:41.530Z,7.18
2019-01-13T01:25:41.515Z,7.20
2019-01-13T01:26:41.502Z,7.17
2019-01-13T01:27:41.492Z,7.20
2019-01-13T01:28:41.475Z,7.18
2019-01-13T01:29:41.460Z,7.21
2019-01-13T01:30:41.447Z,7.21
2019-01-13T01:31:41.436Z,7.18
2019-01-13T01:32:41.420Z,7.18
2019-01-13T01:33:41.406Z,7.23
2019-01-13T01:34:41.392Z,7.21
2019-01-13T01:35:41.378Z,7.21
2019-01-13T01:36:41.366Z,7.23
2019-01-13T01:37:41.400Z,7.20
2019-01-13T01:38:41.336Z,7.21
2019-01-13T01:39:41.323Z,7.24
2019-01-13T01:40:41.309Z,7.17
2019-01-13T01:41:41.295Z,7.17
2019-01-13T01:42:41.282Z,7.23
2019-01-13T01:43:41.267Z,7.20
2019-01-13T01:44:41.254Z,7.21
2019-01-13T01:45:41.239Z,7.23
2019-01-13T01:46:41.226Z,7.18
2019-01-13T01:47:41.213Z,7.11
2019-01-13T01:48:41.202Z,7.18
2019-01-13T01:49:41.186Z,7.15
2019-01-13T01:50:41.171Z,7.21
2019-01-13T01:51:41.156Z,7.21
2019-01-13T01:52:41.143Z,7.18
2019-01-13T01:53:41.128Z,7.20
2019-01-13T01:54:41.114Z,7.20
2019-01-13T01:55:41.101Z,7.14
2019-01-13T01:56:41.087Z,7.21
2019-01-13T01:57:41.072Z,7.21
2019-01-13T01:58:41.058Z,7.18
2019-01-13T01:59:41.044Z,7.21
2019-01-13T02:00:41.032Z,7.25
2019-01-13T02:01:41.018Z,7.18
2019-01-13T02:02:41.002Z,7.20
2019-01-13T02:03:41.055Z,7.15
2019-01-13T02:04:40.975Z,7.24
2019-01-13T02:05:40.960Z,7.20
2019-01-13T02:06:40.947Z,7.20
2019-01-13T02:07:40.952Z,7.15
2019-01-13T02:08:40.920Z,7.15
2019-01-13T02:09:40.904Z,7.25
2019-01-13T02:10:40.891Z,7.20
2019-01-13T02:11:40.877Z,7.20
2019-01-13T02:12:40.863Z,7.18
2019-01-13T02:13:40.849Z,7.23
2019-01-13T02:14:40.835Z,7.24
2019-01-13T02:15:40.821Z,7.18
2019-01-13T02:16:40.807Z,7.21
2019-01-13T02:17:40.794Z,7.18
2019-01-13T02:18:40.779Z,7.17
2019-01-13T02:19:40.765Z,7.18
2019-01-13T02:20:40.751Z,7.17
2019-01-13T02:21:40.737Z,7.24
2019-01-13T02:22:40.723Z,7.17
2019-01-13T02:23:40.709Z,7.13
2019-01-13T02:24:40.699Z,7.18
2019-01-13T02:25:40.681Z,7.23
2019-01-13T02:26:40.669Z,7.21
2019-01-13T02:27:40.654Z,7.21
2019-01-13T02:28:41.040Z,7.18
2019-01-13T02:29:40.628Z,7.20
2019-01-13T02:30:48.788Z,7.21
2019-01-13T02:31:40.598Z,7.21
2019-01-13T02:32:40.586Z,7.21
2019-01-13T02:33:40.569Z,7.18
2019-01-13T02:34:40.557Z,7.21
2019-01-13T02:35:40.544Z,7.24
2019-01-13T02:36:40.529Z,7.13
2019-01-13T02:37:40.514Z,7.21
2019-01-13T02:38:40.600Z,7.13
2019-01-13T02:39:40.486Z,7.11
2019-01-13T02:40:40.473Z,7.13
2019-01-13T02:41:40.465Z,7.18
2019-01-13T02:42:40.444Z,7.25
2019-01-13T02:43:40.433Z,7.21
2019-01-13T02:44:40.417Z,7.10
2019-01-13T02:45:40.402Z,7.15
2019-01-13T02:46:40.388Z,7.17
2019-01-13T02:47:40.375Z,7.15
2019-01-13T02:48:40.361Z,7.21
2019-01-13T02:49:40.349Z,7.15
2019-01-13T02:50:40.333Z,7.15
2019-01-13T02:51:40.319Z,7.23
2019-01-13T02:52:40.305Z,7.21
2019-01-13T02:53:40.290Z,7.21
2019-01-13T02:54:40.277Z,7.23
2019-01-13T02:55:40.264Z,7.14
2019-01-13T02:56:40.251Z,7.07
2019-01-13T02:57:40.234Z,7.13
2019-01-13T02:58:40.223Z,7.17
2019-01-13T02:59:40.207Z,7.23
2019-01-13T03:00:40.193Z,7.23
2019-01-13T03:01:40.179Z,7.07
2019-01-13T03:02:40.166Z,7.20
2019-01-13T03:03:40.151Z,7.20
2019-01-13T03:04:40.493Z,7.20
2019-01-13T03:05:40.125Z,7.23
2019-01-13T03:06:40.110Z,7.21
2019-01-13T03:07:40.095Z,7.21
2019-01-13T03:08:40.083Z,7.18
2019-01-13T03:09:40.068Z,7.15
2019-01-13T03:10:40.054Z,7.13
2019-01-13T03:11:40.039Z,7.18
2019-01-13T03:12:40.026Z,7.18
2019-01-13T03:13:40.016Z,7.23
2019-01-13T03:14:40.008Z,7.20
2019-01-13T03:15:39.987Z,7.23
2019-01-13T03:16:39.969Z,7.20
2019-01-13T03:17:39.955Z,7.24
2019-01-13T03:18:39.941Z,7.18
2019-01-13T03:19:39.966Z,7.21
2019-01-13T03:20:39.915Z,7.11
2019-01-13T03:21:39.900Z,7.20
2019-01-13T03:22:39.885Z,7.18
2019-01-13T03:23:39.871Z,7.17
2019-01-13T03:24:39.859Z,7.20
2019-01-13T03:25:39.844Z,7.21
2019-01-13T03:26:39.834Z,7.23
2019-01-13T03:27:39.815Z,7.20
2019-01-13T03:38:39.659Z,7.23
2019-01-13T03:39:39.647Z,7.21
2019-01-13T03:40:39.631Z,7.20
2019-01-13T03:41:39.627Z,7.25
2019-01-13T03:42:39.603Z,7.20
2019-01-13T03:43:39.589Z,7.18
2019-01-13T03:44:39.574Z,7.23
2019-01-13T03:45:39.559Z,7.20
2019-01-13T03:46:39.545Z,7.18
2019-01-13T03:47:39.531Z,7.23
2019-01-13T03:48:39.518Z,7.28
2019-01-13T03:49:39.502Z,7.17
2019-01-13T03:50:39.488Z,7.21
2019-01-13T03:51:39.474Z,7.31
2019-01-13T03:52:39.461Z,7.35
2019-01-13T03:53:39.445Z,7.29
2019-01-13T03:54:39.430Z,7.20
2019-01-13T03:55:39.425Z,7.18
2019-01-13T03:56:39.402Z,7.32
2019-01-13T03:57:39.414Z,7.31
2019-01-13T03:58:39.374Z,7.20
2019-01-13T03:59:39.359Z,7.35
2019-01-13T04:00:39.345Z,7.31
2019-01-13T04:01:39.333Z,7.29
2019-01-13T04:02:39.315Z,7.21
2019-01-13T04:03:39.303Z,7.21
2019-01-13T04:04:39.288Z,7.20
2019-01-13T04:05:39.273Z,7.28
2019-01-13T04:06:39.259Z,7.35
2019-01-13T04:07:39.246Z,7.20
2019-01-13T04:08:39.231Z,7.20
2019-01-13T04:09:39.216Z,7.24
2019-01-13T04:10:39.201Z,7.23
2019-01-13T04:11:39.188Z,7.23
2019-01-13T04:12:39.174Z,7.29
2019-01-13T04:13:39.159Z,7.24
2019-01-13T04:14:39.154Z,7.23
2019-01-13T04:15:39.133Z,7.23
2019-01-13T04:16:39.118Z,7.21
2019-01-13T04:17:39.103Z,7.33
2019-01-13T04:18:39.091Z,7.21
2019-01-13T04:19:39.079Z,7.29
2019-01-13T04:20:39.062Z,7.24
2019-01-13T04:21:39.048Z,7.20
2019-01-13T04:22:39.035Z,7.23
2019-01-13T04:23:39.021Z,7.24
2019-01-13T04:24:39.008Z,7.24
2019-01-13T04:25:38.992Z,7.29
2019-01-13T04:26:38.978Z,7.21
2019-01-13T04:27:38.965Z,7.28
2019-01-13T04:28:38.953Z,7.23
2019-01-13T04:29:38.938Z,7.28
2019-01-13T04:30:38.924Z,7.28
2019-01-13T04:31:38.909Z,7.29
2019-01-13T04:32:38.898Z,7.23
2019-01-13T04:33:38.883Z,7.23
2019-01-13T04:34:38.868Z,7.28
2019-01-13T04:35:38.855Z,7.29
2019-01-13T04:36:38.842Z,7.31
2019-01-13T04:37:38.826Z,7.32
2019-01-13T04:38:38.813Z,7.31
2019-01-13T04:39:38.799Z,7.28
2019-01-13T04:40:38.786Z,7.35
2019-01-13T04:41:38.771Z,7.31
2019-01-13T04:42:38.758Z,7.21
2019-01-13T04:43:38.745Z,7.31
2019-01-13T04:44:38.732Z,7.21
2019-01-13T04:45:38.717Z,7.33
2019-01-13T04:46:38.747Z,7.29
2019-01-13T04:47:38.695Z,7.31
2019-01-13T04:48:38.676Z,7.36
2019-01-13T04:49:38.663Z,7.36
2019-01-13T04:50:38.648Z,7.32
2019-01-13T04:51:38.636Z,7.40
2019-01-13T04:52:38.622Z,7.40
2019-01-13T04:53:38.606Z,7.36
2019-01-13T04:54:38.595Z,7.42
2019-01-13T04:55:38.585Z,7.39
2019-01-13T04:56:38.566Z,7.42
2019-01-13T04:57:38.552Z,7.38
2019-01-13T04:58:38.541Z,7.40
2019-01-13T04:59:38.524Z,7.36
2019-01-13T05:00:38.513Z,7.39
2019-01-13T05:01:38.501Z,7.40
2019-01-13T05:02:38.488Z,7.36
2019-01-13T05:03:38.471Z,7.38
2019-01-13T05:04:38.477Z,7.40
2019-01-13T05:05:38.449Z,7.43
2019-01-13T05:06:38.429Z,7.40
2019-01-13T05:07:38.417Z,7.38
2019-01-13T05:08:38.402Z,7.48
2019-01-13T05:09:38.388Z,7.45
2019-01-13T05:10:38.375Z,7.36
2019-01-13T05:11:38.362Z,7.45
2019-01-13T05:12:38.347Z,7.45
2019-01-13T05:13:38.335Z,7.47
2019-01-13T05:14:38.324Z,7.45
2019-01-13T05:15:38.326Z,7.45
2019-01-13T05:16:38.293Z,7.48
2019-01-13T05:17:38.278Z,7.48
2019-01-13T05:18:38.266Z,7.47
2019-01-13T05:19:38.253Z,7.48
2019-01-13T05:20:40.143Z,7.48
2019-01-13T05:21:38.223Z,7.50
2019-01-13T05:22:38.217Z,7.53
2019-01-13T05:23:38.197Z,7.54
2019-01-13T05:24:38.186Z,7.57
2019-01-13T05:25:38.174Z,7.50
2019-01-13T05:26:38.156Z,7.51
2019-01-13T05:27:38.142Z,7.53
2019-01-13T05:28:38.129Z,7.53
2019-01-13T05:29:38.115Z,7.53
2019-01-13T05:30:38.102Z,7.54
2019-01-13T05:31:41.884Z,7.58
2019-01-13T05:32:38.075Z,7.66
2019-01-13T05:33:38.060Z,7.58
2019-01-13T05:34:38.048Z,7.72
2019-01-13T05:35:38.034Z,7.51
2019-01-13T05:36:38.020Z,7.57
2019-01-13T05:37:38.008Z,7.66
2019-01-13T05:38:37.996Z,7.51
2019-01-13T05:39:37.979Z,7.57
2019-01-13T05:40:37.966Z,7.57
2019-01-13T05:41:37.952Z,7.72
2019-01-13T05:42:37.938Z,7.56
2019-01-13T05:43:37.925Z,7.67
2019-01-13T05:44:37.911Z,7.66
2019-01-13T05:45:37.897Z,7.72
2019-01-13T05:46:37.884Z,7.69
2019-01-13T05:47:37.871Z,7.61
2019-01-13T05:48:37.857Z,7.67
2019-01-13T05:49:37.842Z,7.72
2019-01-13T05:50:37.829Z,7.69
2019-01-13T05:51:37.816Z,7.61
2019-01-13T05:52:37.802Z,7.72
2019-01-13T05:53:37.788Z,7.76
2019-01-13T05:54:37.776Z,7.66
2019-01-13T05:55:37.762Z,7.69
2019-01-13T05:56:37.751Z,7.70
2019-01-13T05:57:37.734Z,7.69
2019-01-13T05:58:37.720Z,7.72
2019-01-13T05:59:37.707Z,7.80
2019-01-13T06:00:37.693Z,7.69
2019-01-13T06:01:37.682Z,7.72
2019-01-13T06:02:37.666Z,7.80
2019-01-13T06:03:37.652Z,7.83
2019-01-13T06:04:37.640Z,7.80
2019-01-13T06:05:37.627Z,7.73
2019-01-13T06:06:37.610Z,7.72
2019-01-13T06:07:37.598Z,7.79
2019-01-13T06:08:37.584Z,7.76
2019-01-13T06:09:37.569Z,7.75
2019-01-13T06:10:37.558Z,7.87
2019-01-13T06:11:37.543Z,7.73
2019-01-13T06:12:37.529Z,7.79
2019-01-13T06:13:37.515Z,7.91
2019-01-13T06:14:37.502Z,7.87
2019-01-13T06:15:37.490Z,7.80
2019-01-13T06:16:37.477Z,7.85
2019-01-13T06:17:37.463Z,7.82
2019-01-13T06:18:37.449Z,7.90
2019-01-13T06:19:37.433Z,7.90
2019-01-13T06:20:37.421Z,7.83
2019-01-13T06:21:37.405Z,7.85
2019-01-13T06:22:37.393Z,7.87
2019-01-13T06:23:37.378Z,7.87
2019-01-13T06:24:37.364Z,7.87
2019-01-13T06:25:37.350Z,7.82
2019-01-13T06:26:37.336Z,7.94
2019-01-13T06:27:37.322Z,7.93
2019-01-13T06:28:37.308Z,7.93
2019-01-13T06:29:37.294Z,8.00
2019-01-13T06:30:37.281Z,7.90
2019-01-13T06:31:37.267Z,7.97
2019-01-13T06:32:37.253Z,7.93
2019-01-13T06:33:37.239Z,7.93
2019-01-13T06:34:37.233Z,7.97
2019-01-13T06:35:37.211Z,7.97
2019-01-13T06:36:37.198Z,8.00
2019-01-13T06:37:37.185Z,8.03
2019-01-13T06:38:37.169Z,8.03
2019-01-13T06:39:37.156Z,8.03
2019-01-13T06:40:37.142Z,8.00
2019-01-13T06:41:37.127Z,8.01
2019-01-13T06:42:37.114Z,8.01
2019-01-13T06:43:37.100Z,8.09
2019-01-13T06:44:37.089Z,8.01
2019-01-13T06:45:37.072Z,8.03
2019-01-13T06:46:37.059Z,8.09
2019-01-13T06:47:37.045Z,8.15
2019-01-13T06:48:37.031Z,8.05
2019-01-13T06:49:37.016Z,8.10
2019-01-13T06:50:37.003Z,8.15
2019-01-13T06:51:36.989Z,8.15
2019-01-13T06:52:36.975Z,8.15
2019-01-13T06:53:36.960Z,8.18
2019-01-13T06:54:36.948Z,8.10
2019-01-13T06:55:36.933Z,8.18
2019-01-13T06:56:36.919Z,8.09
2019-01-13T06:57:36.904Z,8.10
2019-01-13T06:58:36.894Z,8.15
2019-01-13T06:59:36.876Z,8.19
2019-01-13T07:00:36.863Z,8.16
2019-01-13T07:01:36.850Z,8.13
2019-01-13T07:02:36.835Z,8.09
2019-01-13T07:03:36.821Z,8.16
2019-01-13T07:04:36.808Z,8.20
2019-01-13T07:05:36.792Z,8.15
2019-01-13T07:06:36.779Z,8.19
2019-01-13T07:07:37.534Z,8.20
2019-01-13T07:08:36.751Z,8.19
2019-01-13T07:09:36.737Z,8.19
2019-01-13T07:10:36.725Z,8.20
2019-01-13T07:11:36.709Z,8.23
2019-01-13T07:12:36.695Z,8.24
2019-01-13T07:13:36.680Z,8.23
2019-01-13T07:14:36.667Z,8.26
2019-01-13T07:15:36.653Z,8.20
2019-01-13T07:16:36.643Z,8.23
2019-01-13T07:17:36.625Z,8.24
2019-01-13T07:18:36.612Z,8.23
2019-01-13T07:19:36.598Z,8.18
2019-01-13T07:20:36.584Z,8.20
2019-01-13T07:21:36.569Z,8.19
2019-01-13T07:22:36.558Z,8.16
2019-01-13T07:23:36.542Z,8.23
2019-01-13T07:24:36.528Z,8.19
2019-01-13T07:25:36.514Z,8.26
2019-01-13T07:26:36.500Z,8.18
2019-01-13T07:27:36.485Z,8.16
2019-01-13T07:28:36.473Z,8.24
2019-01-13T07:29:36.461Z,8.34
2019-01-13T07:30:36.444Z,8.19
2019-01-13T07:31:36.432Z,8.30
2019-01-13T07:32:36.517Z,8.33
2019-01-13T07:33:36.405Z,8.30
2019-01-13T07:34:36.388Z,8.31
2019-01-13T07:35:36.375Z,8.33
2019-01-13T07:36:36.364Z,8.33
2019-01-13T07:37:36.348Z,8.37
2019-01-13T07:38:36.333Z,8.31
2019-01-13T07:39:36.319Z,8.28
2019-01-13T07:40:36.306Z,8.31
2019-01-13T07:41:36.291Z,8.26
2019-01-13T07:42:36.277Z,8.36
2019-01-13T07:43:36.264Z,8.33
2019-01-13T07:44:36.250Z,8.24
2019-01-13T07:45:36.239Z,8.30
2019-01-13T07:46:36.222Z,8.28
2019-01-13T07:47:36.208Z,8.27
2019-01-13T07:48:36.195Z,8.28
2019-01-13T07:49:36.181Z,8.28
2019-01-13T07:50:36.167Z,8.27
2019-01-13T07:51:36.153Z,8.31
2019-01-13T07:52:36.140Z,8.31
2019-01-13T07:53:36.125Z,8.30
2019-01-13T07:54:36.111Z,8.30
2019-01-13T07:55:36.098Z,8.27
2019-01-13T07:56:36.084Z,8.28
2019-01-13T07:57:36.070Z,8.28
2019-01-13T07:58:36.056Z,8.30
2019-01-13T07:59:36.043Z,8.31
2019-01-13T08:00:36.029Z,8.31
2019-01-13T08:01:36.014Z,8.33
2019-01-13T08:02:36.000Z,8.34
2019-01-13T08:03:35.987Z,8.36
2019-01-13T08:04:35.976Z,8.42
2019-01-13T08:05:35.960Z,8.36
2019-01-13T08:06:35.950Z,8.36
2019-01-13T08:07:35.932Z,8.44
2019-01-13T08:08:35.918Z,8.41
2019-01-13T08:09:35.904Z,8.45
2019-01-13T08:10:35.890Z,8.37
2019-01-13T08:11:35.881Z,8.45
2019-01-13T08:12:35.863Z,8.42
2019-01-13T08:13:35.849Z,8.38
2019-01-13T08:14:35.835Z,8.45
2019-01-13T08:15:35.822Z,8.42
2019-01-13T08:16:35.808Z,8.36
2019-01-13T08:17:35.794Z,8.48
2019-01-13T08:18:35.781Z,8.41
2019-01-13T08:19:35.767Z,8.46
2019-01-13T08:20:35.753Z,8.45
2019-01-13T08:21:35.739Z,8.48
2019-01-13T08:22:35.726Z,8.41
2019-01-13T08:23:35.712Z,8.41
2019-01-13T08:24:35.699Z,8.44
2019-01-13T08:25:35.684Z,8.37
2019-01-13T08:26:35.673Z,8.42
2019-01-13T08:27:35.658Z,8.42
2019-01-13T08:28:35.644Z,8.42
2019-01-13T08:29:35.630Z,8.41
2019-01-13T08:30:35.617Z,8.42
2019-01-13T08:31:35.604Z,8.48
2019-01-13T08:32:35.590Z,8.44
2019-01-13T08:33:35.576Z,8.45
2019-01-13T08:34:35.562Z,8.44
2019-01-13T08:35:35.550Z,8.45
2019-01-13T08:36:35.536Z,8.42
2019-01-13T08:37:35.520Z,8.44
2019-01-13T08:38:35.507Z,8.38
2019-01-13T08:39:35.494Z,8.42
2019-01-13T08:40:35.480Z,8.45
2019-01-13T08:41:35.466Z,8.52
2019-01-13T08:42:35.452Z,8.53
2019-01-13T08:43:35.439Z,8.53
2019-01-13T08:44:35.427Z,8.52
2019-01-13T08:45:35.412Z,8.41
2019-01-13T08:46:35.398Z,8.42
2019-01-13T08:47:35.435Z,8.38
2019-01-13T08:48:35.372Z,8.44
2019-01-13T08:49:35.357Z,8.44
2019-01-13T08:50:35.350Z,8.48
2019-01-13T08:51:35.330Z,8.42
2019-01-13T08:52:35.317Z,8.42
2019-01-13T08:53:35.302Z,8.42
2019-01-13T08:54:35.288Z,8.51
2019-01-13T08:55:35.275Z,8.41
2019-01-13T08:56:35.261Z,8.48
2019-01-13T08:57:35.297Z,8.46
2019-01-13T08:58:35.238Z,8.44
2019-01-13T08:59:35.220Z,8.51
2019-01-13T09:00:35.207Z,8.44
2019-01-13T09:01:35.195Z,8.51
2019-01-13T09:02:35.178Z,8.51
2019-01-13T09:03:35.165Z,8.44
2019-01-13T09:04:35.152Z,8.49
2019-01-13T09:05:35.137Z,8.49
2019-01-13T09:06:35.124Z,8.42
2019-01-13T09:07:35.110Z,8.51
2019-01-13T09:08:35.096Z,8.42
2019-01-13T09:09:35.086Z,8.42
2019-01-13T09:10:35.069Z,8.44
2019-01-13T09:11:35.054Z,8.45
2019-01-13T09:12:35.042Z,8.42
2019-01-13T09:13:35.027Z,8.46
2019-01-13T09:14:35.014Z,8.55
2019-01-13T09:15:35.000Z,8.52
2019-01-13T09:16:34.986Z,8.45
2019-01-13T09:17:34.972Z,8.49
2019-01-13T09:18:34.958Z,8.42
2019-01-13T09:19:34.944Z,8.46
2019-01-13T09:20:34.931Z,8.45
2019-01-13T09:21:34.917Z,8.49
2019-01-13T09:22:34.904Z,8.49
2019-01-13T09:23:34.890Z,8.46
2019-01-13T09:24:34.876Z,8.45
2019-01-13T09:25:34.871Z,8.48
2019-01-13T09:26:34.848Z,8.51
2019-01-13T09:27:34.838Z,8.46
2019-01-13T09:28:34.821Z,8.52
2019-01-13T09:29:34.810Z,8.49
2019-01-13T09:30:34.850Z,8.46
2019-01-13T09:31:34.780Z,8.53
2019-01-13T09:32:39.426Z,8.55
2019-01-13T09:33:34.759Z,8.48
2019-01-13T09:34:34.739Z,8.51
2019-01-13T09:35:34.726Z,8.58
2019-01-13T09:36:34.713Z,8.53
2019-01-13T09:37:34.699Z,8.45
2019-01-13T09:38:34.687Z,8.51
2019-01-13T09:39:34.672Z,8.42
2019-01-13T09:40:34.659Z,8.52
2019-01-13T09:41:34.645Z,8.55
2019-01-13T09:42:34.632Z,8.55
2019-01-13T09:43:34.620Z,8.55
2019-01-13T09:44:34.605Z,8.48
2019-01-13T09:45:34.591Z,8.49
2019-01-13T09:46:34.578Z,8.52
2019-01-13T09:47:34.565Z,8.52
2019-01-13T09:48:34.553Z,8.51
2019-01-13T09:49:34.538Z,8.56
2019-01-13T09:50:34.525Z,8.52
2019-01-13T09:51:34.511Z,8.56
2019-01-13T09:52:34.499Z,8.49
2019-01-13T09:53:34.485Z,8.52
2019-01-13T09:54:34.471Z,8.53
2019-01-13T09:55:34.459Z,8.48
2019-01-13T09:56:34.445Z,8.52
2019-01-13T09:57:34.431Z,8.51
2019-01-13T09:58:34.420Z,8.49
2019-01-13T09:59:34.406Z,8.55
2019-01-13T10:00:34.393Z,8.55
2019-01-13T10:01:34.379Z,8.60
2019-01-13T10:02:34.365Z,8.60
2019-01-13T10:03:34.353Z,8.56
2019-01-13T10:04:34.340Z,8.53
2019-01-13T10:05:34.326Z,8.52
2019-01-13T10:06:34.313Z,8.53
2019-01-13T10:07:34.300Z,8.58
2019-01-13T10:08:34.287Z,8.51
2019-01-13T10:09:34.273Z,8.49
2019-01-13T10:10:34.260Z,8.60
2019-01-13T10:11:34.247Z,8.53
2019-01-13T10:12:34.234Z,8.53
2019-01-13T10:13:34.220Z,8.51
2019-01-13T10:14:34.207Z,8.60
2019-01-13T10:15:34.194Z,8.55
2019-01-13T10:16:34.183Z,8.55
2019-01-13T10:17:34.171Z,8.55
2019-01-13T10:18:34.153Z,8.58
2019-01-13T10:19:34.142Z,8.51
2019-01-13T10:20:34.128Z,8.60
2019-01-13T10:21:34.116Z,8.58
2019-01-13T10:22:34.101Z,8.56
2019-01-13T10:23:34.088Z,8.48
2019-01-13T10:24:34.076Z,8.56
2019-01-13T10:25:34.062Z,8.51
2019-01-13T10:26:34.048Z,8.55
2019-01-13T10:27:34.035Z,8.55
2019-01-13T10:28:34.025Z,8.52
2019-01-13T10:29:34.008Z,8.58
2019-01-13T10:30:33.995Z,8.63
2019-01-13T10:31:33.984Z,8.53
2019-01-13T10:32:33.970Z,8.63
2019-01-13T10:33:33.956Z,8.55
2019-01-13T10:34:33.942Z,8.58
2019-01-13T10:35:33.929Z,8.53
2019-01-13T10:36:33.916Z,8.52
2019-01-13T10:37:33.903Z,8.61
2019-01-13T10:38:33.893Z,8.61
2019-01-13T10:39:33.879Z,8.61
2019-01-13T10:40:33.866Z,8.63
2019-01-13T10:41:33.852Z,8.61
2019-01-13T10:42:33.838Z,8.67
2019-01-13T10:43:33.827Z,8.64
2019-01-13T10:44:33.812Z,8.61
2019-01-13T10:45:33.802Z,8.64
2019-01-13T10:46:33.785Z,8.61
2019-01-13T10:47:33.773Z,8.66
2019-01-13T10:48:33.761Z,8.70
2019-01-13T10:49:33.746Z,8.67
2019-01-13T10:50:33.735Z,8.67
2019-01-13T10:51:33.720Z,8.63
2019-01-13T10:52:33.708Z,8.69
2019-01-13T10:53:33.694Z,8.73
2019-01-13T10:54:33.681Z,8.67
2019-01-13T10:55:33.668Z,8.73
2019-01-13T10:56:33.656Z,8.70
2019-01-13T10:57:33.642Z,8.73
2019-01-13T10:58:33.631Z,8.67
2019-01-13T10:59:33.618Z,8.74
2019-01-13T11:00:33.654Z,8.74
2019-01-13T11:01:33.591Z,8.78
2019-01-13T11:02:33.578Z,8.76
2019-01-13T11:03:33.567Z,8.74
2019-01-13T11:04:33.552Z,8.70
2019-01-13T11:05:33.538Z,8.70
2019-01-13T11:06:33.526Z,8.74
2019-01-13T11:07:33.513Z,8.69
2019-01-13T11:08:33.500Z,8.71
2019-01-13T11:09:33.486Z,8.76
2019-01-13T11:10:33.474Z,8.74
2019-01-13T11:11:33.461Z,8.76
2019-01-13T11:12:33.448Z,8.71
2019-01-13T11:13:33.437Z,8.79
2019-01-13T11:14:33.421Z,8.78
2019-01-13T11:15:33.408Z,8.74
2019-01-13T11:16:33.395Z,8.70
2019-01-13T11:17:33.384Z,8.84
2019-01-13T11:18:33.369Z,8.71
2019-01-13T11:19:33.384Z,8.84
2019-01-13T11:20:33.342Z,8.74
2019-01-13T11:21:33.328Z,8.71
2019-01-13T11:22:33.315Z,8.71
2019-01-13T11:23:33.302Z,8.70
2019-01-13T11:24:33.289Z,8.73
2019-01-13T11:25:33.275Z,8.71
2019-01-13T11:26:33.262Z,8.70
2019-01-13T11:27:33.251Z,8.76
2019-01-13T11:28:33.235Z,8.66
2019-01-13T11:29:33.224Z,8.73
2019-01-13T11:30:33.208Z,8.69
2019-01-13T11:31:33.197Z,8.73
2019-01-13T11:32:33.182Z,8.78
2019-01-13T11:33:33.168Z,8.73
2019-01-13T11:34:33.156Z,8.78
2019-01-13T11:35:33.142Z,8.70
2019-01-13T11:36:33.129Z,8.73
2019-01-13T11:37:33.115Z,8.74
2019-01-13T11:38:33.102Z,8.64
2019-01-13T11:39:33.089Z,8.67
2019-01-13T11:40:33.075Z,8.76
2019-01-13T11:41:33.061Z,8.64
2019-01-13T11:42:33.049Z,8.64
2019-01-13T11:43:33.035Z,8.74
2019-01-13T11:44:33.023Z,8.74
2019-01-13T11:45:33.008Z,8.64
2019-01-13T11:46:32.995Z,8.66
2019-01-13T11:47:32.981Z,8.66
2019-01-13T11:48:32.968Z,8.67
2019-01-13T11:49:32.957Z,8.63
2019-01-13T11:50:32.940Z,8.67
2019-01-13T11:51:32.928Z,8.63
2019-01-13T11:52:32.915Z,8.63
2019-01-13T11:53:32.901Z,8.60
2019-01-13T11:54:32.888Z,8.64
2019-01-13T11:55:32.874Z,8.64
2019-01-13T11:56:32.872Z,8.60
2019-01-13T11:57:32.847Z,8.66
2019-01-13T11:58:32.833Z,8.67
2019-01-13T11:59:32.820Z,8.60
2019-01-13T12:00:32.807Z,8.61
2019-01-13T12:01:32.792Z,8.64
2019-01-13T12:02:33.030Z,8.61
2019-01-13T12:03:32.767Z,8.70
2019-01-13T12:04:32.753Z,8.78
2019-01-13T12:05:32.739Z,8.73
2019-01-13T12:06:32.725Z,8.74
2019-01-13T12:07:32.713Z,8.63
2019-01-13T12:08:32.699Z,8.67
2019-01-13T12:09:32.685Z,8.66
2019-01-13T12:10:32.671Z,8.61
2019-01-13T12:11:32.658Z,8.64
2019-01-13T12:12:32.645Z,8.69
2019-01-13T12:13:32.630Z,8.60
2019-01-13T12:14:32.617Z,8.60
2019-01-13T12:15:32.606Z,8.64
2019-01-13T12:16:32.590Z,8.63
2019-01-13T12:17:32.575Z,8.58
2019-01-13T12:18:32.562Z,8.55
2019-01-13T12:19:32.549Z,8.60
2019-01-13T12:20:32.537Z,8.64
2019-01-13T12:21:32.521Z,8.55
2019-01-13T12:22:32.511Z,8.56
2019-01-13T12:23:32.495Z,8.60
2019-01-13T12:24:32.482Z,8.60
2019-01-13T12:25:32.466Z,8.67
2019-01-13T12:26:32.454Z,8.63
2019-01-13T12:27:32.440Z,8.58
2019-01-13T12:28:32.426Z,8.63
2019-01-13T12:29:32.413Z,8.64
2019-01-13T12:30:32.399Z,8.60
2019-01-13T12:31:32.417Z,8.60
2019-01-13T12:32:32.372Z,8.66
2019-01-13T12:33:32.358Z,8.64
2019-01-13T12:34:32.344Z,8.70
2019-01-13T12:35:32.332Z,8.79
2019-01-13T12:36:32.318Z,8.91
2019-01-13T12:37:32.304Z,8.84
2019-01-13T12:38:32.290Z,8.81
2019-01-13T12:39:32.277Z,8.84
2019-01-13T12:40:32.264Z,8.71
2019-01-13T12:41:32.249Z,8.66
2019-01-13T12:42:32.236Z,8.76
2019-01-13T12:43:32.227Z,8.81
2019-01-13T12:44:32.209Z,8.69
2019-01-13T12:45:32.196Z,8.66
2019-01-13T12:46:32.181Z,8.76
2019-01-13T12:47:32.169Z,8.78
2019-01-13T12:48:32.155Z,8.76
2019-01-13T12:49:32.142Z,8.71
2019-01-13T12:50:32.130Z,8.74
2019-01-13T12:51:32.115Z,8.70
2019-01-13T12:52:33.690Z,8.71
2019-01-13T12:53:32.086Z,8.71
2019-01-13T12:54:32.075Z,8.74
2019-01-13T12:55:32.069Z,8.74
2019-01-13T12:56:32.047Z,8.78
2019-01-13T12:57:32.034Z,8.79
2019-01-13T12:58:32.020Z,8.78
2019-01-13T12:59:32.006Z,8.73
2019-01-13T13:00:31.993Z,8.69
2019-01-13T13:01:31.979Z,8.81
2019-01-13T13:02:31.965Z,8.74
2019-01-13T13:03:32.051Z,8.70
2019-01-13T13:04:31.946Z,8.78
2019-01-13T13:05:31.926Z,8.76
2019-01-13T13:06:31.912Z,8.70
2019-01-13T13:07:31.899Z,8.88
2019-01-13T13:08:31.885Z,8.76
2019-01-13T13:09:31.872Z,8.76
2019-01-13T13:10:31.859Z,8.84
2019-01-13T13:11:31.845Z,8.82
2019-01-13T13:12:31.832Z,8.84
2019-01-13T13:13:31.818Z,8.84
2019-01-13T13:14:31.806Z,8.82
2019-01-13T13:15:31.791Z,8.81
2019-01-13T13:16:31.778Z,8.78
2019-01-13T13:17:31.764Z,8.79
2019-01-13T13:18:31.752Z,8.79
2019-01-13T13:19:31.738Z,8.81
2019-01-13T13:20:31.724Z,8.81
2019-01-13T13:21:31.711Z,8.81
2019-01-13T13:22:31.697Z,8.78
2019-01-13T13:23:31.683Z,8.82
2019-01-13T13:24:31.670Z,8.82
2019-01-13T13:25:32.235Z,8.78
2019-01-13T13:26:31.642Z,8.84
2019-01-13T13:27:31.629Z,8.74
2019-01-13T13:28:31.619Z,8.81